Time;durP1;ratioP1;P1;durP2;ratioP2;P2;SDS_P1;SDS_P2;PMS_P1;PMS_P2;Temp;Humidity;BMP_temperature;BMP_pressure;BME280_temperature;BME280_humidity;BME280_pressure;Samples;Min_cycle;Max_cycle;Signal;HPM_P1;HPM_P2
2023/12/31 00:02:15;;;;;;;;;;;;;;;-144.99;nan;52572.44;5100763;28;19924;-72
2023/12/31 00:04:41;;;;;;;;;;;;;;;-144.99;nan;52580.59;5100739;28;19943;-73
2023/12/31 00:07:08;;;;;;;;;;;;;;;-144.99;nan;52558.16;5102608;28;19932;-75
2023/12/31 00:09:34;;;;;;;;;;;;;;;-144.99;nan;52596.88;5100118;28;19928;-73
2023/12/31 00:12:01;;;;;;;;;;;;;;;-144.99;nan;52615.25;5104714;28;19928;-75
2023/12/31 00:14:27;;;;;;;;;;;;;;;-144.99;nan;52594.84;5100503;28;20230;-75
2023/12/31 00:16:54;;;;;;;;;;;;;;;-144.99;nan;52594.84;5100035;28;20274;-73
2023/12/31 00:19:22;;;;;;;;;;;;;;;-144.99;nan;52586.69;5095726;28;19924;-71
2023/12/31 00:21:48;;;;;;;;;;;;;;;-144.99;nan;52574.47;5100201;28;19935;-71
2023/12/31 00:24:15;;;;;;;;;;;;;;;-144.99;nan;52566.31;5095061;28;19924;-71
2023/12/31 00:26:41;;;;;;;;;;;;;;;-144.99;nan;52594.84;5097930;28;19974;-71
2023/12/31 00:29:08;;;;;;;;;;;;;;;-144.99;nan;52588.75;5088525;28;19932;-72
2023/12/31 00:31:34;;;;;;;;;;;;;;;-144.99;nan;52590.78;5104321;28;19973;-73
2023/12/31 00:34:01;;;;;;;;;;;;;;;-144.99;nan;52586.69;5098330;28;20373;-74
2023/12/31 00:36:29;;;;;;;;;;;;;;;-144.99;nan;52592.81;5104211;28;19931;-73
2023/12/31 00:38:56;;;;;;;;;;;;;;;-144.99;nan;52592.81;5095231;28;19928;-73
2023/12/31 00:41:22;;;;;;;;;;;;;;;-144.99;nan;52590.78;5092570;28;19993;-74
2023/12/31 00:43:49;;;;;;;;;;;;;;;-144.99;nan;52586.69;5094214;28;19936;-73
2023/12/31 00:46:15;;;;;;;;;;;;;;;-144.99;nan;52584.66;5097933;28;19924;-74
2023/12/31 00:48:42;;;;;;;;;;;;;;;-144.99;nan;52566.31;5100646;28;19924;-73
2023/12/31 00:51:08;;;;;;;;;;;;;;;-144.99;nan;52615.25;5099733;28;20525;-72
2023/12/31 00:53:36;;;;;;;;;;;;;;;-144.99;nan;52590.78;5100897;28;20468;-74
2023/12/31 00:56:03;;;;;;;;;;;;;;;-144.99;nan;52580.59;5089842;28;19954;-74
2023/12/31 00:58:29;;;;;;;;;;;;;;;-144.99;nan;52586.69;5092721;28;20520;-67
2023/12/31 01:00:56;;;;;;;;;;;;;;;-144.99;nan;52545.94;5095258;28;19928;-65
2023/12/31 01:03:22;;;;;;;;;;;;;;;-144.99;nan;52590.78;5093026;28;19932;-66
2023/12/31 01:05:49;;;;;;;;;;;;;;;-144.99;nan;52574.47;5089282;28;19955;-77
2023/12/31 01:08:15;;;;;;;;;;;;;;;-144.99;nan;52619.31;5088340;28;20469;-78
2023/12/31 01:10:43;;;;;;;;;;;;;;;-144.99;nan;52568.34;5084049;28;19932;-66
2023/12/31 01:13:10;;;;;;;;;;;;;;;-144.99;nan;52598.94;5079035;28;20404;-66
2023/12/31 01:15:36;;;;;;;;;;;;;;;-144.99;nan;52613.19;5087326;28;19994;-65
2023/12/31 01:18:03;;;;;;;;;;;;;;;-144.99;nan;52631.53;5082291;28;19971;-66
2023/12/31 01:20:29;;;;;;;;;;;;;;;-144.99;nan;52574.47;5076166;28;19942;-65
2023/12/31 01:22:56;;;;;;;;;;;;;;;-144.99;nan;52603.00;5070385;28;19968;-65
2023/12/31 01:25:22;;;;;;;;;;;;;;;-144.99;nan;52562.25;5076845;28;19930;-65
2023/12/31 01:27:50;;;;;;;;;;;;;;;-144.99;nan;52576.50;5078237;28;20024;-70
2023/12/31 01:30:16;;;;;;;;;;;;;;;-144.99;nan;52594.84;5081019;28;19970;-71
2023/12/31 01:32:44;;;;;;;;;;;;;;;-144.99;nan;52615.25;5082807;28;20024;-77
2023/12/31 01:35:10;;;;;;;;;;;;;;;-144.99;nan;52627.47;5089364;28;19931;-78
2023/12/31 01:37:37;;;;;;;;;;;;;;;-144.99;nan;52598.94;5094268;28;19973;-78
2023/12/31 01:40:04;;;;;;;;;;;;;;;-144.99;nan;52582.63;5099251;22;19924;-76
2023/12/31 01:42:30;;;;;;;;;;;;;;;-144.99;nan;52619.31;5080745;28;19994;-75
2023/12/31 01:44:58;;;;;;;;;;;;;;;-144.99;nan;52578.53;5086588;28;20031;-66
2023/12/31 01:47:25;;;;;;;;;;;;;;;-144.99;nan;52586.69;5089760;28;20250;-69
2023/12/31 01:49:52;;;;;;;;;;;;;;;-144.99;nan;52594.84;5103062;28;20438;-68
2023/12/31 01:52:19;;;;;;;;;;;;;;;-144.99;nan;52603.00;5106525;28;19984;-67
2023/12/31 01:54:45;;;;;;;;;;;;;;;-144.99;nan;52582.63;5109564;28;19935;-66
2023/12/31 01:57:12;;;;;;;;;;;;;;;-144.99;nan;52572.44;5107930;28;19924;-68
2023/12/31 01:59:40;;;;;;;;;;;;;;;-144.99;nan;52590.78;5110669;28;20061;-67
2023/12/31 02:02:08;;;;;;;;;;;;;;;-144.99;nan;52605.03;5106228;28;20050;-67
2023/12/31 02:04:34;;;;;;;;;;;;;;;-144.99;nan;52627.47;5103222;28;20328;-67
2023/12/31 02:07:01;;;;;;;;;;;;;;;-144.99;nan;52609.13;5108767;28;20371;-67
2023/12/31 02:09:28;;;;;;;;;;;;;;;-144.99;nan;52578.53;5108459;28;19970;-67
2023/12/31 02:11:55;;;;;;;;;;;;;;;-144.99;nan;52611.16;5104949;28;19979;-67
2023/12/31 02:14:21;;;;;;;;;;;;;;;-144.99;nan;52598.94;5100229;28;20453;-67
2023/12/31 02:16:48;;;;;;;;;;;;;;;-144.99;nan;52574.47;5107500;28;19936;-67
2023/12/31 02:19:16;;;;;;;;;;;;;;;-144.99;nan;52603.00;5108609;28;19982;-67
2023/12/31 02:21:42;;;;;;;;;;;;;;;-144.99;nan;52578.53;4756414;28;9999956;-68
2023/12/31 02:24:12;;;;;;;;;;;;;;;-144.99;nan;52590.78;5104899;28;20019;-68
2023/12/31 02:26:40;;;;;;;;;;;;;;;-144.99;nan;52598.94;5106553;28;19927;-68
2023/12/31 02:29:07;;;;;;;;;;;;;;;-144.99;nan;52578.53;5106849;28;19927;-68
2023/12/31 02:31:35;;;;;;;;;;;;;;;-144.99;nan;52578.53;5103968;28;19955;-65
2023/12/31 02:34:01;;;;;;;;;;;;;;;-144.99;nan;52623.38;5108930;28;19924;-65
2023/12/31 02:36:28;;;;;;;;;;;;;;;-144.99;nan;52607.09;5103381;28;19963;-65
2023/12/31 02:38:54;;;;;;;;;;;;;;;-144.99;nan;52611.16;5119830;28;19920;-70
2023/12/31 02:41:20;;;;;;;;;;;;;;;-144.99;nan;52609.13;5128493;27;19950;-72
2023/12/31 02:43:48;;;;;;;;;;;;;;;-144.99;nan;52596.88;5133398;27;19961;-74
2023/12/31 02:46:15;;;;;;;;;;;;;;;-144.99;nan;52594.84;5121381;28;20009;-70
2023/12/31 02:48:42;;;;;;;;;;;;;;;-144.99;nan;52631.53;5110126;28;19931;-71
2023/12/31 02:51:08;;;;;;;;;;;;;;;-144.99;nan;52605.03;5107733;28;20042;-72
2023/12/31 02:53:35;;;;;;;;;;;;;;;-144.99;nan;52574.47;5110544;28;19963;-73
2023/12/31 02:56:01;;;;;;;;;;;;;;;-144.99;nan;52582.63;5106037;28;20436;-72
2023/12/31 02:58:28;;;;;;;;;;;;;;;-144.99;nan;52607.09;5110012;28;19928;-73
2023/12/31 03:00:56;;;;;;;;;;;;;;;-144.99;nan;52554.09;5107856;28;19992;-75
2023/12/31 03:03:22;;;;;;;;;;;;;;;-144.99;nan;52600.97;5110268;28;19974;-75
2023/12/31 03:05:49;;;;;;;;;;;;;;;-144.99;nan;52586.69;5111258;28;20204;-75
2023/12/31 03:08:15;;;;;;;;;;;;;;;-144.99;nan;52623.38;5108913;28;20629;-69
2023/12/31 03:10:42;;;;;;;;;;;;;;;-144.99;nan;52615.25;5106597;28;20276;-72
2023/12/31 03:13:08;;;;;;;;;;;;;;;-144.99;nan;52570.38;5110418;28;19932;-73
2023/12/31 03:15:35;;;;;;;;;;;;;;;-144.99;nan;52570.38;5091306;28;20389;-73
2023/12/31 03:18:04;;;;;;;;;;;;;;;-144.99;nan;52619.31;5108128;28;20392;-72
2023/12/31 03:20:31;;;;;;;;;;;;;;;-144.99;nan;52647.84;5107849;28;20018;-72
2023/12/31 03:22:57;;;;;;;;;;;;;;;-144.99;nan;52603.00;5105819;28;20386;-73
2023/12/31 03:25:24;;;;;;;;;;;;;;;-144.99;nan;52570.38;5111701;28;20224;-72
2023/12/31 03:27:50;;;;;;;;;;;;;;;-144.99;nan;52578.53;5106896;28;19932;-72
2023/12/31 03:30:17;;;;;;;;;;;;;;;-144.99;nan;52570.38;5106709;28;20538;-72
2023/12/31 03:32:43;;;;;;;;;;;;;;;-144.99;nan;52574.47;5089995;28;19977;-72
2023/12/31 03:35:11;;;;;;;;;;;;;;;-144.99;nan;52558.16;5111417;28;19924;-72
2023/12/31 03:37:37;;;;;;;;;;;;;;;-144.99;nan;52580.59;5112120;28;20355;-72
2023/12/31 03:40:04;;;;;;;;;;;;;;;-144.99;nan;52566.31;5108688;28;19974;-70
2023/12/31 03:42:31;;;;;;;;;;;;;;;-144.99;nan;52558.16;5114916;27;19924;-75
2023/12/31 03:44:57;;;;;;;;;;;;;;;-144.99;nan;52594.84;5125953;27;19923;-71
2023/12/31 03:47:24;;;;;;;;;;;;;;;-144.99;nan;52574.47;5126649;28;19946;-72
2023/12/31 03:49:50;;;;;;;;;;;;;;;-144.99;nan;52574.47;5124160;28;20377;-70
2023/12/31 03:52:18;;;;;;;;;;;;;;;-144.99;nan;52576.50;5107973;28;19927;-71
2023/12/31 03:54:44;;;;;;;;;;;;;;;-144.99;nan;52631.53;5109009;28;19967;-72
2023/12/31 03:57:10;;;;;;;;;;;;;;;-144.99;nan;52584.66;5108039;28;20496;-72
2023/12/31 03:59:37;;;;;;;;;;;;;;;-144.99;nan;52596.88;5108372;28;19988;-73
2023/12/31 04:02:03;;;;;;;;;;;;;;;-144.99;nan;52580.59;5107748;28;19939;-71
2023/12/31 04:04:30;;;;;;;;;;;;;;;-144.99;nan;52615.25;5115058;28;19923;-71
2023/12/31 04:06:56;;;;;;;;;;;;;;;-144.99;nan;52609.13;5110411;28;19924;-72
2023/12/31 04:09:24;;;;;;;;;;;;;;;-144.99;nan;52603.00;5112168;28;19924;-73
2023/12/31 04:11:51;;;;;;;;;;;;;;;-144.99;nan;52607.09;5107140;28;19961;-73
2023/12/31 04:14:16;;;;;;;;;;;;;;;-144.99;nan;52596.88;5107130;28;19927;-72
2023/12/31 04:16:43;;;;;;;;;;;;;;;-144.99;nan;52562.25;5106539;28;20000;-73
2023/12/31 04:19:14;;;;;;;;;;;;;;;-144.99;nan;52576.50;5109884;28;20768;-71
2023/12/31 04:21:40;;;;;;;;;;;;;;;-144.99;nan;52582.63;5109549;28;19981;-73
2023/12/31 04:24:07;;;;;;;;;;;;;;;-144.99;nan;52554.09;5103206;28;20010;-71
2023/12/31 04:26:35;;;;;;;;;;;;;;;-144.99;nan;52574.47;5106008;28;19931;-71
2023/12/31 04:29:01;;;;;;;;;;;;;;;-144.99;nan;52586.69;5107343;28;19992;-73
2023/12/31 04:31:27;;;;;;;;;;;;;;;-144.99;nan;52574.47;5109285;28;20011;-72
2023/12/31 04:33:54;;;;;;;;;;;;;;;-144.99;nan;52586.69;5106908;28;20008;-71
2023/12/31 04:36:21;;;;;;;;;;;;;;;-144.99;nan;52558.16;5127969;22;19931;-69
2023/12/31 04:38:47;;;;;;;;;;;;;;;-144.99;nan;52556.13;5100289;28;19963;-68
2023/12/31 04:41:19;;;;;;;;;;;;;;;-144.99;nan;52623.38;5104892;28;19928;-68
2023/12/31 04:43:47;;;;;;;;;;;;;;;-144.99;nan;52562.25;5109257;27;19969;-68
2023/12/31 04:46:14;;;;;;;;;;;;;;;-144.99;nan;52594.84;5103420;28;20292;-71
2023/12/31 04:48:41;;;;;;;;;;;;;;;-144.99;nan;52574.47;5104315;28;20246;-70
2023/12/31 04:51:07;;;;;;;;;;;;;;;-144.99;nan;52550.00;5108294;28;20487;-71
2023/12/31 04:53:34;;;;;;;;;;;;;;;-144.99;nan;52594.84;5101862;28;20011;-77
2023/12/31 04:56:01;;;;;;;;;;;;;;;-144.99;nan;52578.53;5102413;28;19928;-67
2023/12/31 04:58:28;;;;;;;;;;;;;;;-144.99;nan;52582.63;5106919;28;19928;-71
2023/12/31 05:00:56;;;;;;;;;;;;;;;-144.99;nan;52592.81;5126428;28;19911;-71
2023/12/31 05:03:22;;;;;;;;;;;;;;;-144.99;nan;52607.09;5127951;28;19927;-72
2023/12/31 05:05:49;;;;;;;;;;;;;;;-144.99;nan;52580.59;5099687;28;19972;-72
2023/12/31 05:08:15;;;;;;;;;;;;;;;-144.99;nan;52598.94;5101306;28;20042;-73
2023/12/31 05:10:42;;;;;;;;;;;;;;;-144.99;nan;52615.25;5099699;28;19997;-72
2023/12/31 05:13:09;;;;;;;;;;;;;;;-144.99;nan;52615.25;5106629;28;20251;-72
2023/12/31 05:15:36;;;;;;;;;;;;;;;-144.99;nan;52598.94;5106847;28;19987;-65
2023/12/31 05:18:04;;;;;;;;;;;;;;;-144.99;nan;52647.84;5101121;28;19934;-66
2023/12/31 05:20:30;;;;;;;;;;;;;;;-144.99;nan;52584.66;5105564;28;19962;-68
2023/12/31 05:22:57;;;;;;;;;;;;;;;-144.99;nan;52578.53;5108044;28;20035;-69
2023/12/31 05:25:23;;;;;;;;;;;;;;;-144.99;nan;52598.94;5108150;28;19923;-69
2023/12/31 05:27:49;;;;;;;;;;;;;;;-144.99;nan;52570.38;5107096;28;19924;-69
2023/12/31 05:30:16;;;;;;;;;;;;;;;-144.99;nan;52586.69;5106222;28;19951;-69
2023/12/31 05:32:43;;;;;;;;;;;;;;;-144.99;nan;52582.63;5105279;28;20032;-69
2023/12/31 05:35:11;;;;;;;;;;;;;;;-144.99;nan;52607.09;5109920;28;19932;-69
2023/12/31 05:37:38;;;;;;;;;;;;;;;-144.99;nan;52611.16;5103628;28;20362;-69
2023/12/31 05:40:05;;;;;;;;;;;;;;;-144.99;nan;52590.78;5106972;27;19978;-69
2023/12/31 05:42:31;;;;;;;;;;;;;;;-144.99;nan;52598.94;5125991;28;20131;-68
2023/12/31 05:44:58;;;;;;;;;;;;;;;-144.99;nan;52590.78;5127505;28;19932;-68
2023/12/31 05:47:24;;;;;;;;;;;;;;;-144.99;nan;52578.53;5109019;28;19930;-70
2023/12/31 05:49:51;;;;;;;;;;;;;;;-144.99;nan;52574.47;5106739;27;20350;-69
2023/12/31 05:52:19;;;;;;;;;;;;;;;-144.99;nan;52562.25;5100059;28;19932;-69
2023/12/31 05:54:45;;;;;;;;;;;;;;;-144.99;nan;52631.53;5107542;28;19931;-70
2023/12/31 05:57:12;;;;;;;;;;;;;;;-144.99;nan;52603.00;5098666;28;20337;-70
2023/12/31 05:59:38;;;;;;;;;;;;;;;-144.99;nan;52660.09;5106515;27;20023;-69
2023/12/31 06:02:07;;;;;;;;;;;;;;;-144.99;nan;52627.47;5108006;28;19967;-68
2023/12/31 06:04:33;;;;;;;;;;;;;;;-144.99;nan;52594.84;5100984;28;19930;-65
2023/12/31 06:07:00;;;;;;;;;;;;;;;-144.99;nan;52598.94;5101701;28;19978;-65
2023/12/31 06:09:27;;;;;;;;;;;;;;;-144.99;nan;52586.69;5107933;27;20225;-66
2023/12/31 06:11:54;;;;;;;;;;;;;;;-144.99;nan;52590.78;5105889;27;19935;-64
2023/12/31 06:14:20;;;;;;;;;;;;;;;-144.99;nan;52574.47;5106034;27;19930;-66
2023/12/31 06:16:47;;;;;;;;;;;;;;;-144.99;nan;52590.78;5107969;27;19927;-71
2023/12/31 06:19:13;;;;;;;;;;;;;;;-144.99;nan;52651.94;5108985;28;19983;-70
2023/12/31 06:21:40;;;;;;;;;;;;;;;-144.99;nan;52586.69;5107781;28;19992;-71
2023/12/31 06:24:07;;;;;;;;;;;;;;;-144.99;nan;52590.78;5114060;28;20006;-68
2023/12/31 06:26:35;;;;;;;;;;;;;;;-144.99;nan;52558.16;5114139;28;19984;-70
2023/12/31 06:29:01;;;;;;;;;;;;;;;-144.99;nan;52570.38;5099625;28;20039;-63
2023/12/31 06:31:27;;;;;;;;;;;;;;;-144.99;nan;52586.69;5107949;28;20055;-66
2023/12/31 06:33:54;;;;;;;;;;;;;;;-144.99;nan;52562.25;5106195;27;20297;-65
2023/12/31 06:36:20;;;;;;;;;;;;;;;-144.99;nan;52588.75;5105739;28;20422;-68
2023/12/31 06:38:47;;;;;;;;;;;;;;;-144.99;nan;52570.38;5099265;28;19923;-69
2023/12/31 06:41:13;;;;;;;;;;;;;;;-144.99;nan;52594.84;5109442;28;19923;-71
2023/12/31 06:43:41;;;;;;;;;;;;;;;-144.99;nan;52552.03;5107655;27;19934;-70
2023/12/31 06:46:08;;;;;;;;;;;;;;;-144.99;nan;52550.00;5107439;28;19944;-70
2023/12/31 06:48:34;;;;;;;;;;;;;;;-144.99;nan;52621.34;5107580;28;19936;-70
2023/12/31 06:51:00;;;;;;;;;;;;;;;-144.99;nan;52594.84;5104589;28;20365;-70
2023/12/31 06:53:27;;;;;;;;;;;;;;;-144.99;nan;52594.84;5109241;28;20517;-70
2023/12/31 06:55:53;;;;;;;;;;;;;;;-144.99;nan;52550.00;5103651;28;20244;-70
2023/12/31 06:58:20;;;;;;;;;;;;;;;-144.99;nan;52578.53;5109000;28;20046;-71
2023/12/31 07:00:48;;;;;;;;;;;;;;;-144.99;nan;52598.94;5104801;27;20337;-71
2023/12/31 07:03:14;;;;;;;;;;;;;;;-144.99;nan;52594.84;5107275;28;19967;-76
2023/12/31 07:05:41;;;;;;;;;;;;;;;-144.99;nan;52586.69;5131255;28;19943;-76
2023/12/31 07:08:08;;;;;;;;;;;;;;;-144.99;nan;52609.13;5114133;28;19935;-73
2023/12/31 07:10:35;;;;;;;;;;;;;;;-144.99;nan;52590.78;5104416;28;20326;-75
2023/12/31 07:13:02;;;;;;;;;;;;;;;-144.99;nan;52600.97;5109698;28;20038;-75
2023/12/31 07:15:29;;;;;;;;;;;;;;;-144.99;nan;52594.84;5110100;28;20056;-75
2023/12/31 07:17:57;;;;;;;;;;;;;;;-144.99;nan;52574.47;5115485;27;20381;-75
2023/12/31 07:20:24;;;;;;;;;;;;;;;-144.99;nan;52600.97;5113557;28;19924;-75
2023/12/31 07:22:52;;;;;;;;;;;;;;;-144.99;nan;52568.34;5113476;28;19934;-74
2023/12/31 07:25:19;;;;;;;;;;;;;;;-144.99;nan;52598.94;5114568;28;20305;-74
2023/12/31 07:27:46;;;;;;;;;;;;;;;-144.99;nan;52572.44;5118000;28;20015;-68
2023/12/31 07:30:12;;;;;;;;;;;;;;;-144.99;nan;52572.44;5105290;28;19960;-69
2023/12/31 07:32:39;;;;;;;;;;;;;;;-144.99;nan;52607.09;5104844;28;20010;-69
2023/12/31 07:35:08;;;;;;;;;;;;;;;-144.99;nan;52607.09;5107400;28;19936;-68
2023/12/31 07:37:35;;;;;;;;;;;;;;;-144.99;nan;52590.78;5108556;28;19938;-68
2023/12/31 07:40:01;;;;;;;;;;;;;;;-144.99;nan;52586.69;5107480;28;19927;-76
2023/12/31 07:42:28;;;;;;;;;;;;;;;-144.99;nan;52578.53;5104652;28;19934;-76
2023/12/31 07:44:54;;;;;;;;;;;;;;;-144.99;nan;52558.16;5108509;27;19923;-76
2023/12/31 07:47:21;;;;;;;;;;;;;;;-144.99;nan;52564.28;5106066;28;19958;-67
2023/12/31 07:49:48;;;;;;;;;;;;;;;-144.99;nan;52607.09;5105170;28;19927;-68
2023/12/31 07:52:16;;;;;;;;;;;;;;;-144.99;nan;52594.84;5104373;28;19924;-68
2023/12/31 07:54:43;;;;;;;;;;;;;;;-144.99;nan;52594.84;5104767;28;19924;-70
2023/12/31 07:57:09;;;;;;;;;;;;;;;-144.99;nan;52598.94;5102866;27;20421;-70
2023/12/31 07:59:37;;;;;;;;;;;;;;;-144.99;nan;52578.53;5108168;28;20379;-67
2023/12/31 08:02:04;;;;;;;;;;;;;;;-144.99;nan;52603.00;5106701;28;19938;-71
2023/12/31 08:04:31;;;;;;;;;;;;;;;-144.99;nan;52574.47;5106174;28;19985;-75
2023/12/31 08:06:57;;;;;;;;;;;;;;;-144.99;nan;52609.13;5106078;28;20010;-73
2023/12/31 08:09:25;;;;;;;;;;;;;;;-144.99;nan;52611.16;5107836;28;19924;-72
2023/12/31 08:11:51;;;;;;;;;;;;;;;-144.99;nan;52578.53;5113932;28;20423;-72
2023/12/31 08:14:18;;;;;;;;;;;;;;;-144.99;nan;52566.31;5107879;28;19989;-72
2023/12/31 08:16:45;;;;;;;;;;;;;;;-144.99;nan;52582.63;5102412;28;19986;-71
2023/12/31 08:19:11;;;;;;;;;;;;;;;-144.99;nan;52617.28;5104357;28;20000;-72
2023/12/31 08:21:38;;;;;;;;;;;;;;;-144.99;nan;52588.75;5106586;27;20014;-71
2023/12/31 08:24:05;;;;;;;;;;;;;;;-144.99;nan;52594.84;5106478;28;19978;-71
2023/12/31 08:26:32;;;;;;;;;;;;;;;-144.99;nan;52562.25;5111848;28;19923;-72
2023/12/31 08:28:59;;;;;;;;;;;;;;;-144.99;nan;52594.84;5129740;28;19976;-72
2023/12/31 08:31:26;;;;;;;;;;;;;;;-144.99;nan;52564.28;5103797;28;19971;-72
2023/12/31 08:33:52;;;;;;;;;;;;;;;-144.99;nan;52590.78;5096562;28;19929;-71
2023/12/31 08:36:19;;;;;;;;;;;;;;;-144.99;nan;52607.09;5104841;28;20432;-72
2023/12/31 08:38:45;;;;;;;;;;;;;;;-144.99;nan;52584.66;5106611;28;20850;-71
2023/12/31 08:41:12;;;;;;;;;;;;;;;-144.99;nan;52594.84;5105653;28;20452;-72
2023/12/31 08:43:40;;;;;;;;;;;;;;;-144.99;nan;52603.00;5111347;27;19997;-71
2023/12/31 08:46:07;;;;;;;;;;;;;;;-144.99;nan;52617.28;5104097;28;20308;-71
2023/12/31 08:48:34;;;;;;;;;;;;;;;-144.99;nan;52568.34;5099876;28;19931;-71
2023/12/31 08:51:00;;;;;;;;;;;;;;;-144.99;nan;52596.88;5103801;28;19993;-72
2023/12/31 08:53:27;;;;;;;;;;;;;;;-144.99;nan;52580.59;5104973;28;20019;-72
2023/12/31 08:55:53;;;;;;;;;;;;;;;-144.99;nan;52582.63;5103587;28;20361;-72
2023/12/31 08:58:20;;;;;;;;;;;;;;;-144.99;nan;52574.47;5101774;28;19940;-72
2023/12/31 09:00:47;;;;;;;;;;;;;;;-144.99;nan;52623.38;5100511;28;19963;-72
2023/12/31 09:03:14;;;;;;;;;;;;;;;-144.99;nan;52600.97;5106456;28;19923;-71
2023/12/31 09:05:40;;;;;;;;;;;;;;;-144.99;nan;52574.47;5105271;28;19955;-71
2023/12/31 09:08:07;;;;;;;;;;;;;;;-144.99;nan;52598.94;5124482;28;19953;-72
2023/12/31 09:10:33;;;;;;;;;;;;;;;-144.99;nan;52580.59;5126949;28;19927;-72
2023/12/31 09:13:00;;;;;;;;;;;;;;;-144.99;nan;52588.75;5105504;28;20396;-72
2023/12/31 09:15:27;;;;;;;;;;;;;;;-144.99;nan;52578.53;5101480;28;20128;-71
2023/12/31 09:17:55;;;;;;;;;;;;;;;-144.99;nan;52576.50;5105368;28;20018;-71
2023/12/31 09:20:22;;;;;;;;;;;;;;;-144.99;nan;52576.50;5104297;28;20444;-72
2023/12/31 09:22:52;;;;;;;;;;;;;;;-144.99;nan;52574.47;5103887;28;20004;-72
2023/12/31 09:25:19;;;;;;;;;;;;;;;-144.99;nan;52582.63;5097108;28;19927;-70
2023/12/31 09:27:45;;;;;;;;;;;;;;;-144.99;nan;52582.63;5103361;28;19981;-74
2023/12/31 09:30:12;;;;;;;;;;;;;;;-144.99;nan;52598.94;5106759;28;19923;-73
2023/12/31 09:32:39;;;;;;;;;;;;;;;-144.99;nan;52611.16;5104366;28;19963;-73
2023/12/31 09:35:07;;;;;;;;;;;;;;;-144.99;nan;52607.09;5106319;28;19977;-73
2023/12/31 09:37:34;;;;;;;;;;;;;;;-144.99;nan;52603.00;5110103;28;19936;-72
2023/12/31 09:40:00;;;;;;;;;;;;;;;-144.99;nan;52598.94;5102927;28;19928;-74
2023/12/31 09:42:29;;;;;;;;;;;;;;;-144.99;nan;52611.16;5104020;28;19990;-74
2023/12/31 09:44:56;;;;;;;;;;;;;;;-144.99;nan;52570.38;5100374;28;19959;-73
2023/12/31 09:47:23;;;;;;;;;;;;;;;-144.99;nan;52562.25;5097874;28;20119;-75
2023/12/31 09:49:50;;;;;;;;;;;;;;;-144.99;nan;52615.25;5121904;28;19932;-76
2023/12/31 09:52:18;;;;;;;;;;;;;;;-144.99;nan;52574.47;5118037;28;19923;-74
2023/12/31 09:54:45;;;;;;;;;;;;;;;-144.99;nan;52586.69;5108397;28;19980;-73
2023/12/31 09:57:14;;;;;;;;;;;;;;;-144.99;nan;52572.44;5106791;28;19985;-73
2023/12/31 09:59:41;;;;;;;;;;;;;;;-144.99;nan;52590.78;5104302;28;19924;-73
2023/12/31 10:02:08;;;;;;;;;;;;;;;-144.99;nan;52594.84;5103893;28;19969;-73
2023/12/31 10:04:35;;;;;;;;;;;;;;;-144.99;nan;52582.63;5106437;28;19932;-74
2023/12/31 10:07:02;;;;;;;;;;;;;;;-144.99;nan;52586.69;5104573;28;19944;-72
2023/12/31 10:09:31;;;;;;;;;;;;;;;-144.99;nan;52617.28;5099933;28;19932;-74
2023/12/31 10:11:58;;;;;;;;;;;;;;;-144.99;nan;52562.25;5109564;28;20484;-72
2023/12/31 10:14:26;;;;;;;;;;;;;;;-144.99;nan;52588.75;5107843;28;20169;-72
2023/12/31 10:16:52;;;;;;;;;;;;;;;-144.99;nan;52621.34;5107178;28;19923;-72
2023/12/31 10:19:19;;;;;;;;;;;;;;;-144.99;nan;52619.31;5101025;28;20329;-71
2023/12/31 10:21:45;;;;;;;;;;;;;;;-144.99;nan;52611.16;5114461;27;19932;-72
2023/12/31 10:24:12;;;;;;;;;;;;;;;-144.99;nan;52590.78;5112706;28;19928;-72
2023/12/31 10:26:40;;;;;;;;;;;;;;;-144.99;nan;52619.31;5112832;28;19963;-73
2023/12/31 10:29:07;;;;;;;;;;;;;;;-144.99;nan;52586.69;5119994;28;19988;-72
2023/12/31 10:31:33;;;;;;;;;;;;;;;-144.99;nan;52586.69;5136977;28;19968;-72
2023/12/31 10:34:13;;;;;;;;;;;;;;;-144.99;nan;52621.34;5113455;28;20549;-73
2023/12/31 10:36:39;;;;;;;;;;;;;;;-144.99;nan;52603.00;5111825;28;20359;-72
2023/12/31 10:39:06;;;;;;;;;;;;;;;-144.99;nan;52594.84;5111157;28;19936;-73
2023/12/31 10:41:35;;;;;;;;;;;;;;;-144.99;nan;52582.63;5112077;28;20008;-73
2023/12/31 10:44:08;;;;;;;;;;;;;;;-144.99;nan;52656.00;5111591;28;20568;-73
2023/12/31 10:46:36;;;;;;;;;;;;;;;-144.99;nan;52550.00;5112134;28;20346;-73
2023/12/31 10:49:04;;;;;;;;;;;;;;;-144.99;nan;52619.31;5095483;28;20301;-73
2023/12/31 10:51:31;;;;;;;;;;;;;;;-144.99;nan;52582.63;5106992;28;19974;-73
2023/12/31 10:53:58;;;;;;;;;;;;;;;-144.99;nan;52611.16;5109744;28;20452;-74
2023/12/31 10:56:25;;;;;;;;;;;;;;;-144.99;nan;52574.47;5110722;28;20011;-73
2023/12/31 10:58:54;;;;;;;;;;;;;;;-144.99;nan;52582.63;5111426;28;19934;-73
2023/12/31 11:01:23;;;;;;;;;;;;;;;-144.99;nan;52570.38;5111950;28;19924;-74
2023/12/31 11:03:49;;;;;;;;;;;;;;;-144.99;nan;52586.69;5116185;28;19924;-72
2023/12/31 11:06:17;;;;;;;;;;;;;;;-144.99;nan;52570.38;5110192;28;19923;-72
2023/12/31 11:08:44;;;;;;;;;;;;;;;-144.99;nan;52582.63;5117005;28;19959;-73
2023/12/31 11:11:11;;;;;;;;;;;;;;;-144.99;nan;52590.78;5136191;28;19919;-72
2023/12/31 11:13:38;;;;;;;;;;;;;;;-144.99;nan;52570.38;5119044;28;19928;-73
2023/12/31 11:16:06;;;;;;;;;;;;;;;-144.99;nan;52550.00;5101822;28;20382;-74
2023/12/31 11:18:42;;;;;;;;;;;;;;;-144.99;nan;52594.84;5109976;28;20411;-72
2023/12/31 11:21:13;;;;;;;;;;;;;;;-144.99;nan;52590.78;5107002;28;19927;-72
2023/12/31 11:23:44;;;;;;;;;;;;;;;-144.99;nan;52562.25;5106490;28;20524;-73
2023/12/31 11:26:12;;;;;;;;;;;;;;;-144.99;nan;52598.94;5105293;28;20435;-73
2023/12/31 11:28:46;;;;;;;;;;;;;;;-144.99;nan;52558.16;5110690;28;19924;-73
2023/12/31 11:31:13;;;;;;;;;;;;;;;-144.99;nan;52533.69;5111363;28;19992;-73
2023/12/31 11:33:41;;;;;;;;;;;;;;;-144.99;nan;52578.53;5109657;28;19978;-72
2023/12/31 11:36:11;;;;;;;;;;;;;;;-144.99;nan;52570.38;5108908;28;19928;-73
2023/12/31 11:38:57;;;;;;;;;;;;;;;-144.99;nan;52598.94;5103622;28;19931;-73
2023/12/31 11:41:24;;;;;;;;;;;;;;;-144.99;nan;52562.25;5095313;28;20017;-73
2023/12/31 11:43:51;;;;;;;;;;;;;;;-144.99;nan;52558.16;5101930;28;20281;-72
2023/12/31 11:46:34;;;;;;;;;;;;;;;-144.99;nan;52545.94;5106662;28;19928;-74
2023/12/31 11:49:02;;;;;;;;;;;;;;;-144.99;nan;52574.47;5111894;28;19912;-72
2023/12/31 11:51:29;;;;;;;;;;;;;;;-144.99;nan;52558.16;5133354;28;19931;-73
2023/12/31 11:53:57;;;;;;;;;;;;;;;-144.99;nan;52545.94;5105250;28;19963;-75
2023/12/31 11:56:26;;;;;;;;;;;;;;;-144.99;nan;52543.91;5103785;28;19923;-74
2023/12/31 11:58:52;;;;;;;;;;;;;;;-144.99;nan;52490.91;5107964;28;19924;-73
2023/12/31 12:01:19;;;;;;;;;;;;;;;-144.99;nan;52501.09;5107276;28;19928;-73
2023/12/31 12:03:46;;;;;;;;;;;;;;;-144.99;nan;52472.56;5110886;28;19923;-73
2023/12/31 12:06:14;;;;;;;;;;;;;;;-144.99;nan;52413.44;5104567;28;19924;-73
2023/12/31 12:08:40;;;;;;;;;;;;;;;-144.99;nan;52388.97;5109940;28;19992;-76
2023/12/31 12:11:07;;;;;;;;;;;;;;;-144.99;nan;52456.25;5110735;28;19981;-73
2023/12/31 12:13:34;;;;;;;;;;;;;;;-144.99;nan;52470.50;5096511;28;20322;-73
2023/12/31 12:16:00;;;;;;;;;;;;;;;-144.99;nan;52521.47;5107236;28;19924;-74
2023/12/31 12:18:27;;;;;;;;;;;;;;;-144.99;nan;52523.50;5101616;28;19924;-73
2023/12/31 12:20:55;;;;;;;;;;;;;;;-144.99;nan;52539.81;5104660;28;19945;-74
2023/12/31 12:23:24;;;;;;;;;;;;;;;-144.99;nan;52594.84;5100736;28;20297;-75
2023/12/31 12:25:51;;;;;;;;;;;;;;;-144.99;nan;52570.38;5102131;28;20232;-75
2023/12/31 12:28:18;;;;;;;;;;;;;;;-144.99;nan;52598.94;5116254;28;19912;-73
2023/12/31 12:30:45;;;;;;;;;;;;;;;-144.99;nan;52531.66;5132831;28;19922;-73
2023/12/31 12:33:12;;;;;;;;;;;;;;;-144.99;nan;52576.50;5108113;28;19974;-75
2023/12/31 12:35:39;;;;;;;;;;;;;;;-144.99;nan;52594.84;5111648;27;19931;-74
2023/12/31 12:38:05;;;;;;;;;;;;;;;-144.99;nan;52615.25;5108996;28;19973;-75
2023/12/31 12:40:33;;;;;;;;;;;;;;;-144.99;nan;52584.66;5107456;28;20323;-75
2023/12/31 12:43:02;;;;;;;;;;;;;;;-144.99;nan;52578.53;5110845;28;19924;-74
2023/12/31 12:45:28;;;;;;;;;;;;;;;-144.99;nan;52556.13;5108799;28;20308;-75
2023/12/31 12:47:58;;;;;;;;;;;;;;;-144.99;nan;52554.09;5101923;28;19923;-75